Time;durP1;ratioP1;P1;durP2;ratioP2;P2;SDS_P1;SDS_P2;PMS_P1;PMS_P2;Temp;Humidity;BMP_temperature;BMP_pressure;BME280_temperature;BME280_humidity;BME280_pressure;Samples;Min_cycle;Max_cycle;Signal;HPM_P1;HPM_P2
2022/07/07 00:02:06;;;;;;;2.78;2.58;;;19.60;98.80;;;;;;5026826;28;20061;-35
2022/07/07 00:04:32;;;;;;;3.17;2.78;;;19.60;98.80;;;;;;5026541;28;20515;-35
2022/07/07 00:06:59;;;;;;;3.80;3.05;;;19.60;98.90;;;;;;5026855;28;20041;-38
2022/07/07 00:09:25;;;;;;;3.58;2.95;;;19.60;99.00;;;;;;5027008;28;20061;-34
2022/07/07 00:11:51;;;;;;;2.95;2.65;;;19.60;99.30;;;;;;5027465;28;20049;-35
2022/07/07 00:14:16;;;;;;;3.78;2.65;;;19.60;99.10;;;;;;5026999;28;20056;-34
2022/07/07 00:16:42;;;;;;;2.95;2.30;;;19.60;99.10;;;;;;5027520;28;20552;-35
2022/07/07 00:19:07;;;;;;;4.97;2.65;;;19.60;99.10;;;;;;5026577;28;20455;-35
2022/07/07 00:21:33;;;;;;;3.15;2.40;;;19.60;99.20;;;;;;5026546;28;20217;-35
2022/07/07 00:23:59;;;;;;;3.10;2.50;;;19.60;99.20;;;;;;5027166;28;20017;-35
2022/07/07 00:26:24;;;;;;;4.10;2.58;;;19.60;99.30;;;;;;5026336;28;20373;-34
2022/07/07 00:28:50;;;;;;;4.40;2.85;;;19.50;99.30;;;;;;5026684;28;20060;-35
2022/07/07 00:31:15;;;;;;;2.90;2.42;;;19.60;99.40;;;;;;5026994;28;20029;-35
2022/07/07 00:33:41;;;;;;;6.43;2.83;;;19.50;99.40;;;;;;5025600;28;20063;-34
2022/07/07 00:36:07;;;;;;;3.30;2.70;;;19.60;99.50;;;;;;5026482;28;20038;-35
2022/07/07 00:38:33;;;;;;;2.83;2.53;;;19.60;99.60;;;;;;5025252;28;20021;-34
2022/07/07 00:40:59;;;;;;;4.22;2.40;;;19.60;99.60;;;;;;5027128;28;20061;-35
2022/07/07 00:43:24;;;;;;;3.70;2.75;;;19.60;99.70;;;;;;5025949;28;20065;-33
2022/07/07 00:45:51;;;;;;;3.00;2.70;;;19.60;99.70;;;;;;5026163;28;20431;-34
2022/07/07 00:48:20;;;;;;;3.53;2.88;;;19.60;99.80;;;;;;5026381;28;20017;-34
2022/07/07 00:50:47;;;;;;;3.50;2.83;;;19.60;99.80;;;;;;5027374;28;20025;-33
2022/07/07 00:53:15;;;;;;;2.95;2.65;;;19.60;99.90;;;;;;5025447;28;20036;-33
2022/07/07 00:55:41;;;;;;;5.60;3.88;;;19.60;99.90;;;;;;5026215;28;20030;-35
2022/07/07 00:58:07;;;;;;;4.47;3.30;;;19.50;99.90;;;;;;5025992;28;20083;-34
2022/07/07 01:00:33;;;;;;;5.38;3.55;;;19.60;99.90;;;;;;5025296;28;20117;-34
2022/07/07 01:02:59;;;;;;;4.25;3.50;;;19.50;99.90;;;;;;5026208;28;20111;-33
2022/07/07 01:05:25;;;;;;;4.88;3.40;;;19.50;99.90;;;;;;5014904;28;20448;-34
2022/07/07 01:07:54;;;;;;;4.97;3.40;;;19.50;99.90;;;;;;5025116;28;20036;-33
2022/07/07 01:10:20;;;;;;;3.92;3.50;;;19.50;99.90;;;;;;5025678;28;20033;-33
2022/07/07 01:12:46;;;;;;;4.90;3.40;;;19.50;99.90;;;;;;5025881;28;20071;-33
2022/07/07 01:15:13;;;;;;;5.53;3.10;;;19.50;99.90;;;;;;5025469;28;20029;-34
2022/07/07 01:17:40;;;;;;;3.60;3.30;;;19.40;99.90;;;;;;5026209;28;20034;-34
2022/07/07 01:20:08;;;;;;;4.47;3.63;;;19.40;99.90;;;;;;5025527;28;20024;-33
2022/07/07 01:22:36;;;;;;;6.28;3.70;;;19.40;99.90;;;;;;5024981;28;20029;-34
2022/07/07 01:25:03;;;;;;;7.22;3.60;;;19.30;99.90;;;;;;5025941;28;20320;-33
2022/07/07 01:27:29;;;;;;;5.28;4.20;;;19.40;99.90;;;;;;5025552;28;20045;-35
2022/07/07 01:29:56;;;;;;;3.67;3.30;;;19.40;99.90;;;;;;5025015;28;20057;-34
2022/07/07 01:32:23;;;;;;;4.30;3.50;;;19.30;99.90;;;;;;5025776;28;20022;-34
2022/07/07 01:34:49;;;;;;;5.40;3.72;;;19.30;99.90;;;;;;5025079;28;20378;-34
2022/07/07 01:37:15;;;;;;;4.28;3.35;;;19.30;99.90;;;;;;5026043;28;20032;-35
2022/07/07 01:39:42;;;;;;;4.82;3.08;;;19.30;99.90;;;;;;5025325;28;20039;-34
2022/07/07 01:42:08;;;;;;;6.35;3.88;;;19.30;99.90;;;;;;5025341;28;20506;-34
2022/07/07 01:44:35;;;;;;;4.32;3.38;;;19.40;99.90;;;;;;5025050;28;20029;-35
2022/07/07 01:47:01;;;;;;;3.75;3.42;;;19.30;99.90;;;;;;5025747;28;20095;-35
2022/07/07 01:49:29;;;;;;;6.72;3.53;;;19.30;99.90;;;;;;5024226;28;20239;-41
2022/07/07 01:51:55;;;;;;;4.65;3.50;;;19.30;99.90;;;;;;5025800;28;20457;-34
2022/07/07 01:54:21;;;;;;;5.85;3.00;;;19.30;99.90;;;;;;5025591;28;20028;-35
2022/07/07 01:56:46;;;;;;;4.10;2.92;;;19.30;99.90;;;;;;5024678;28;20057;-34
2022/07/07 01:59:13;;;;;;;4.28;2.80;;;19.30;99.90;;;;;;5026234;28;20022;-35
2022/07/07 02:01:39;;;;;;;3.53;2.50;;;19.30;99.90;;;;;;5024931;28;20093;-34
2022/07/07 02:04:05;;;;;;;5.35;2.13;;;19.30;99.90;;;;;;5024819;28;20105;-36
2022/07/07 02:06:31;;;;;;;4.50;2.13;;;19.30;99.90;;;;;;5024896;28;20086;-33
2022/07/07 02:08:56;;;;;;;2.83;1.60;;;19.30;99.90;;;;;;5025166;28;20026;-36
2022/07/07 02:11:22;;;;;;;3.08;2.17;;;19.30;99.90;;;;;;5024202;28;20045;-35
2022/07/07 02:13:50;;;;;;;3.97;2.13;;;19.30;99.90;;;;;;5025176;28;20036;-35
2022/07/07 02:16:21;;;;;;;2.60;2.17;;;19.30;99.90;;;;;;5025219;28;20041;-35
2022/07/07 02:18:48;;;;;;;2.17;1.83;;;19.40;99.90;;;;;;5024328;28;20028;-34
2022/07/07 02:21:15;;;;;;;2.03;1.80;;;19.40;99.90;;;;;;5024623;28;20377;-33
2022/07/07 02:23:43;;;;;;;2.53;2.05;;;19.40;99.90;;;;;;5028796;28;20021;-34
2022/07/07 02:26:10;;;;;;;3.20;2.10;;;19.40;99.90;;;;;;5028972;28;20052;-32
2022/07/07 02:28:35;;;;;;;2.88;2.10;;;19.40;99.90;;;;;;5029149;28;20508;-34
2022/07/07 02:31:01;;;;;;;3.05;2.28;;;19.40;99.90;;;;;;5029311;28;20112;-33
2022/07/07 02:33:27;;;;;;;3.13;2.03;;;19.40;99.90;;;;;;5028499;28;20075;-35
2022/07/07 02:35:53;;;;;;;2.75;1.85;;;19.30;99.90;;;;;;5029232;28;20045;-34
2022/07/07 02:38:20;;;;;;;2.33;1.38;;;19.20;99.90;;;;;;5028332;28;20025;-34
2022/07/07 02:40:46;;;;;;;2.20;1.50;;;19.10;99.90;;;;;;5028658;28;20068;-33
2022/07/07 02:43:15;;;;;;;1.52;1.30;;;19.00;99.90;;;;;;5029253;28;20025;-34
2022/07/07 02:45:41;;;;;;;1.90;1.23;;;18.80;99.90;;;;;;5028061;28;20033;-35
2022/07/07 02:48:11;;;;;;;2.42;1.20;;;18.60;99.90;;;;;;5028880;28;20026;-34
2022/07/07 02:50:38;;;;;;;2.25;1.40;;;18.50;99.90;;;;;;5029131;28;20464;-35
2022/07/07 02:53:04;;;;;;;2.08;1.42;;;18.30;99.90;;;;;;5028280;28;20121;-36
2022/07/07 02:55:30;;;;;;;2.03;1.00;;;18.20;99.90;;;;;;5028837;28;20079;-34
2022/07/07 02:57:57;;;;;;;1.38;1.20;;;18.20;99.90;;;;;;5028466;28;20048;-35
2022/07/07 03:00:23;;;;;;;1.20;1.00;;;18.10;99.90;;;;;;5027793;28;20079;-34
2022/07/07 03:02:48;;;;;;;1.70;1.10;;;18.10;99.90;;;;;;5028492;28;20511;-33
2022/07/07 03:05:14;;;;;;;1.08;0.98;;;18.10;99.90;;;;;;5028528;28;20037;-34
2022/07/07 03:07:40;;;;;;;2.88;1.00;;;18.10;99.90;;;;;;5027596;28;20029;-34
2022/07/07 03:10:06;;;;;;;2.53;1.08;;;18.10;99.90;;;;;;5028276;28;20029;-34
2022/07/07 03:12:33;;;;;;;1.20;1.10;;;18.00;99.90;;;;;;5027706;28;20045;-35
2022/07/07 03:14:58;;;;;;;1.40;0.98;;;18.00;99.90;;;;;;5027868;28;20040;-35
2022/07/07 03:17:24;;;;;;;3.47;1.23;;;18.00;99.90;;;;;;5027912;28;20017;-35
2022/07/07 03:19:49;;;;;;;2.35;1.20;;;18.00;99.90;;;;;;5028524;28;20061;-34
2022/07/07 03:22:15;;;;;;;1.35;1.15;;;18.00;99.90;;;;;;5027283;28;20104;-34
2022/07/07 03:24:41;;;;;;;1.25;1.15;;;18.00;99.90;;;;;;5028137;28;20031;-34
2022/07/07 03:27:06;;;;;;;2.10;1.30;;;18.00;99.90;;;;;;5028254;28;20564;-34
2022/07/07 03:29:32;;;;;;;5.30;1.38;;;18.00;99.90;;;;;;5025738;28;20025;-36
2022/07/07 03:31:58;;;;;;;4.13;1.30;;;18.00;99.90;;;;;;5023491;28;20186;-34
2022/07/07 03:34:23;;;;;;;2.08;1.30;;;17.90;99.90;;;;;;5023557;28;20029;-35
2022/07/07 03:36:49;;;;;;;1.65;1.48;;;17.90;99.90;;;;;;5027857;28;20116;-34
2022/07/07 03:39:14;;;;;;;1.30;1.02;;;17.90;99.90;;;;;;5028025;28;20068;-34
2022/07/07 03:41:40;;;;;;;1.42;1.15;;;17.90;99.90;;;;;;5027009;28;20071;-34
2022/07/07 03:44:05;;;;;;;1.48;1.13;;;17.90;99.90;;;;;;5027820;28;20104;-34
2022/07/07 03:46:31;;;;;;;1.52;1.20;;;17.90;99.90;;;;;;5027371;28;20408;-34
2022/07/07 03:48:56;;;;;;;1.63;1.40;;;17.90;99.90;;;;;;5026848;28;20539;-35
2022/07/07 03:51:23;;;;;;;3.17;1.30;;;17.80;99.90;;;;;;5027533;28;20036;-35
2022/07/07 03:53:48;;;;;;;1.52;1.42;;;17.80;99.90;;;;;;5027175;28;20032;-35
2022/07/07 03:56:14;;;;;;;1.60;1.30;;;17.80;99.90;;;;;;5026930;28;20034;-34
2022/07/07 03:58:40;;;;;;;2.03;1.17;;;17.80;99.90;;;;;;5026713;28;20017;-34
2022/07/07 04:01:06;;;;;;;2.25;1.30;;;17.80;99.90;;;;;;5027201;28;20033;-34
2022/07/07 04:03:31;;;;;;;1.33;1.23;;;17.80;99.90;;;;;;5025849;28;20391;-34
2022/07/07 04:05:57;;;;;;;1.70;1.48;;;17.80;99.90;;;;;;5027633;28;20087;-33
2022/07/07 04:08:22;;;;;;;1.30;1.20;;;17.80;99.90;;;;;;5027407;28;20026;-35
2022/07/07 04:10:48;;;;;;;2.42;1.50;;;17.70;99.90;;;;;;5026412;28;20485;-33
2022/07/07 04:13:14;;;;;;;2.72;1.80;;;17.80;99.90;;;;;;5027639;28;20025;-33
2022/07/07 04:15:39;;;;;;;2.35;1.75;;;17.80;99.90;;;;;;5027148;28;20116;-34
2022/07/07 04:18:05;;;;;;;1.60;1.40;;;17.80;99.90;;;;;;5026872;28;20033;-34
2022/07/07 04:20:30;;;;;;;4.20;1.70;;;17.80;99.90;;;;;;5027423;28;20025;-33
2022/07/07 04:22:57;;;;;;;3.53;1.70;;;17.80;99.90;;;;;;5027649;28;20029;-34
2022/07/07 04:25:22;;;;;;;2.85;1.70;;;17.80;99.90;;;;;;5026167;28;20065;-34
2022/07/07 04:27:48;;;;;;;3.33;1.92;;;17.80;99.90;;;;;;5027091;28;20373;-32
2022/07/07 04:30:14;;;;;;;2.47;1.40;;;17.70;99.90;;;;;;5026488;28;20128;-34
2022/07/07 04:32:40;;;;;;;1.90;1.40;;;17.70;99.90;;;;;;5025971;28;20061;-34
2022/07/07 04:35:06;;;;;;;2.10;1.60;;;17.70;99.90;;;;;;5027127;28;20047;-34
2022/07/07 04:37:31;;;;;;;2.72;1.50;;;17.60;99.90;;;;;;5026361;28;20053;-34
2022/07/07 04:39:57;;;;;;;1.50;1.40;;;17.60;99.90;;;;;;5025903;28;20116;-34
2022/07/07 04:42:22;;;;;;;4.38;1.88;;;17.60;99.90;;;;;;5026701;28;20503;-35
2022/07/07 04:44:48;;;;;;;1.00;0.90;;;17.60;99.90;;;;;;5024926;28;20075;-35
2022/07/07 04:47:13;;;;;;;2.25;1.10;;;17.50;99.90;;;;;;5025658;28;20033;-35
2022/07/07 04:49:39;;;;;;;1.98;1.00;;;17.60;99.90;;;;;;5026926;28;20041;-34
2022/07/07 04:52:05;;;;;;;2.58;1.00;;;17.60;99.90;;;;;;5025253;28;20439;-35
2022/07/07 04:54:31;;;;;;;2.30;1.17;;;17.60;99.90;;;;;;5025705;28;20546;-37
2022/07/07 04:56:56;;;;;;;3.13;1.20;;;17.60;99.90;;;;;;5026415;28;20025;-36
2022/07/07 04:59:22;;;;;;;3.10;1.20;;;17.70;99.90;;;;;;5025156;28;20029;-33
2022/07/07 05:01:47;;;;;;;1.88;0.98;;;17.70;99.90;;;;;;5025703;28;20128;-35
2022/07/07 05:04:13;;;;;;;2.53;1.08;;;17.70;99.90;;;;;;5026225;28;20496;-35
2022/07/07 05:06:38;;;;;;;2.55;1.05;;;17.70;99.90;;;;;;5025285;28;20029;-35
2022/07/07 05:09:04;;;;;;;2.25;1.00;;;17.70;99.90;;;;;;5026576;28;20095;-34
2022/07/07 05:11:29;;;;;;;2.35;0.90;;;17.70;99.90;;;;;;5025223;28;20034;-35
2022/07/07 05:13:55;;;;;;;2.15;0.80;;;17.70;99.90;;;;;;5025342;28;20029;-34
2022/07/07 05:16:21;;;;;;;4.95;1.17;;;17.70;99.90;;;;;;5026067;28;20303;-34
2022/07/07 05:18:46;;;;;;;3.42;0.93;;;17.70;99.90;;;;;;5025740;28;20029;-34
2022/07/07 05:21:12;;;;;;;4.38;1.10;;;17.60;99.90;;;;;;5025213;28;20041;-33
2022/07/07 05:23:37;;;;;;;3.78;0.98;;;17.50;99.90;;;;;;5025676;28;20326;-33
2022/07/07 05:26:03;;;;;;;2.88;1.10;;;17.50;99.90;;;;;;5026161;28;20484;-35
2022/07/07 05:28:30;;;;;;;3.08;1.27;;;17.40;99.90;;;;;;5024334;28;20072;-34
2022/07/07 05:30:56;;;;;;;4.45;0.93;;;17.40;99.90;;;;;;5026337;28;20045;-33
2022/07/07 05:33:21;;;;;;;3.63;0.90;;;17.30;99.90;;;;;;5025451;28;20030;-33
2022/07/07 05:35:47;;;;;;;3.33;1.30;;;17.20;99.90;;;;;;5023026;28;20124;-34
2022/07/07 05:38:13;;;;;;;4.45;1.15;;;17.20;99.90;;;;;;5014646;28;20389;-35
2022/07/07 05:40:39;;;;;;;3.80;1.13;;;17.20;99.90;;;;;;5039931;28;20566;-34
2022/07/07 05:43:05;;;;;;;3.83;0.95;;;17.20;99.90;;;;;;5029922;28;20040;-34
2022/07/07 05:45:30;;;;;;;4.20;1.58;;;17.30;99.90;;;;;;5023370;28;20496;-37
2022/07/07 05:47:56;;;;;;;3.35;0.90;;;17.30;99.90;;;;;;5024577;28;20524;-35
2022/07/07 05:50:21;;;;;;;4.15;1.10;;;17.40;99.90;;;;;;5023391;28;20559;-35
2022/07/07 05:52:47;;;;;;;3.47;1.15;;;17.50;99.90;;;;;;5021113;28;20026;-34
2022/07/07 05:55:12;;;;;;;4.78;1.02;;;17.50;99.90;;;;;;5014011;28;20025;-34
2022/07/07 05:57:38;;;;;;;2.83;0.98;;;17.60;99.90;;;;;;5023814;28;20022;-35
2022/07/07 06:00:05;;;;;;;3.92;1.20;;;17.60;99.90;;;;;;5018546;28;20098;-35
2022/07/07 06:02:31;;;;;;;4.40;0.98;;;17.70;99.90;;;;;;5026081;28;20037;-36
2022/07/07 06:04:56;;;;;;;4.45;1.20;;;17.80;99.90;;;;;;5017096;28;20733;-35
2022/07/07 06:07:22;;;;;;;4.60;1.17;;;17.90;99.90;;;;;;5028907;28;20032;-35
2022/07/07 06:09:47;;;;;;;4.38;1.10;;;17.90;99.90;;;;;;5014901;28;20570;-35
2022/07/07 06:12:14;;;;;;;4.90;1.20;;;18.00;99.90;;;;;;5028212;28;20464;-34
2022/07/07 06:14:40;;;;;;;5.88;1.38;;;18.00;99.90;;;;;;5016239;28;20103;-35
2022/07/07 06:17:05;;;;;;;5.60;1.20;;;18.00;99.90;;;;;;5028284;28;20022;-34
2022/07/07 06:19:31;;;;;;;5.78;1.58;;;18.00;99.90;;;;;;5018522;28;20389;-34
2022/07/07 06:21:56;;;;;;;5.63;1.50;;;17.90;99.90;;;;;;5025640;28;20022;-34
2022/07/07 06:24:22;;;;;;;5.07;1.52;;;17.60;99.90;;;;;;5020975;28;20051;-34
2022/07/07 06:26:48;;;;;;;6.85;1.42;;;17.40;99.90;;;;;;5022803;28;20038;-34
2022/07/07 06:29:13;;;;;;;6.03;1.35;;;17.20;99.90;;;;;;5023618;28;20037;-34
2022/07/07 06:31:39;;;;;;;3.13;1.15;;;17.10;99.90;;;;;;5020024;28;20040;-34
2022/07/07 06:34:04;;;;;;;2.38;1.05;;;17.00;99.90;;;;;;5022328;28;20482;-35
2022/07/07 06:36:30;;;;;;;3.63;1.08;;;17.00;99.90;;;;;;5019385;28;20014;-34
2022/07/07 06:38:56;;;;;;;5.20;0.98;;;17.00;99.90;;;;;;5010085;28;20052;-35
2022/07/07 06:41:23;;;;;;;3.13;0.88;;;17.00;99.90;;;;;;5019737;28;20026;-34
2022/07/07 06:43:49;;;;;;;4.18;1.10;;;17.10;99.90;;;;;;5008717;28;20044;-34
2022/07/07 06:46:14;;;;;;;3.65;1.15;;;17.10;99.90;;;;;;5020118;28;20042;-34
2022/07/07 06:48:40;;;;;;;3.83;1.15;;;17.20;99.90;;;;;;5008608;28;20032;-34
2022/07/07 06:51:05;;;;;;;5.95;1.02;;;17.20;99.90;;;;;;5021119;28;20041;-35
2022/07/07 06:53:31;;;;;;;4.28;1.25;;;17.40;99.90;;;;;;5007887;28;20672;-37
2022/07/07 06:55:57;;;;;;;4.88;1.10;;;17.50;99.90;;;;;;5019453;28;20464;-35
2022/07/07 06:58:22;;;;;;;3.58;1.13;;;17.60;99.90;;;;;;5014636;28;20133;-34
2022/07/07 07:00:48;;;;;;;3.40;1.00;;;17.60;99.90;;;;;;5019713;28;20053;-35
2022/07/07 07:03:13;;;;;;;6.78;1.35;;;17.70;99.90;;;;;;5024347;28;20576;-35
2022/07/07 07:05:39;;;;;;;5.97;1.58;;;17.80;99.90;;;;;;5021085;28;20030;-34
2022/07/07 07:08:05;;;;;;;4.45;1.23;;;17.70;99.90;;;;;;5021776;28;20032;-34
2022/07/07 07:10:30;;;;;;;4.72;1.08;;;17.70;99.90;;;;;;5024323;28;20053;-35
2022/07/07 07:12:56;;;;;;;2.53;0.82;;;17.70;99.90;;;;;;5018064;28;20021;-35
2022/07/07 07:15:21;;;;;;;5.47;1.13;;;17.80;99.90;;;;;;5026369;28;20044;-35
2022/07/07 07:17:47;;;;;;;3.13;0.93;;;18.00;99.90;;;;;;5017464;28;20028;-35
2022/07/07 07:20:14;;;;;;;4.97;0.90;;;18.10;99.90;;;;;;5019369;28;20038;-34
2022/07/07 07:22:40;;;;;;;3.05;0.85;;;18.10;99.90;;;;;;5019327;28;20018;-34
2022/07/07 07:25:07;;;;;;;3.00;0.73;;;18.10;99.90;;;;;;5008380;28;20451;-35
2022/07/07 07:27:34;;;;;;;2.30;0.77;;;18.10;99.90;;;;;;5019079;28;20036;-34
2022/07/07 07:30:00;;;;;;;1.95;0.75;;;18.10;99.90;;;;;;5008173;28;20355;-34
2022/07/07 07:32:25;;;;;;;2.63;0.95;;;18.10;99.90;;;;;;5020254;28;20038;-35
2022/07/07 07:34:51;;;;;;;3.33;0.90;;;18.10;99.90;;;;;;5010302;28;20033;-35
2022/07/07 07:37:16;;;;;;;4.10;1.25;;;18.00;99.90;;;;;;5016882;28;20034;-34
2022/07/07 07:39:42;;;;;;;4.60;1.05;;;17.90;99.90;;;;;;5025868;28;20038;-40
2022/07/07 07:42:07;;;;;;;3.50;1.30;;;18.00;99.90;;;;;;5019040;28;20046;-35
2022/07/07 07:47:17;;;;;;;4.03;0.85;;;18.00;99.90;;;;;;5019666;28;20058;-37
2022/07/07 07:49:43;;;;;;;1.80;0.80;;;18.00;99.90;;;;;;5022446;28;20395;-35
2022/07/07 07:52:09;;;;;;;2.53;0.95;;;17.90;99.90;;;;;;5022104;28;20372;-34
2022/07/07 07:54:34;;;;;;;3.30;0.88;;;18.00;99.90;;;;;;5008534;28;20033;-35
2022/07/07 07:57:00;;;;;;;2.90;0.80;;;18.00;99.90;;;;;;5010399;28;20427;-35
2022/07/07 07:59:25;;;;;;;3.22;0.63;;;18.00;99.90;;;;;;5026037;28;20034;-35
2022/07/07 08:01:51;;;;;;;2.88;0.70;;;18.10;99.90;;;;;;5025159;28;20045;-35
2022/07/07 08:04:17;;;;;;;4.32;0.90;;;18.00;99.90;;;;;;5016434;28;20489;-34
2022/07/07 08:06:42;;;;;;;2.22;0.70;;;18.00;99.90;;;;;;5025856;28;20400;-35
2022/07/07 08:09:11;;;;;;;4.68;1.00;;;18.00;99.90;;;;;;5015424;28;20044;-36
2022/07/07 08:11:36;;;;;;;4.20;0.95;;;18.00;99.90;;;;;;5027683;28;20483;-34
2022/07/07 08:14:02;;;;;;;2.45;0.90;;;18.00;99.90;;;;;;5014935;28;20496;-34
2022/07/07 08:16:28;;;;;;;4.22;1.10;;;18.10;99.90;;;;;;5026010;28;20112;-35
2022/07/07 08:18:53;;;;;;;4.80;1.58;;;18.20;99.90;;;;;;5015102;28;20037;-34
2022/07/07 08:21:19;;;;;;;5.28;1.48;;;18.30;99.90;;;;;;5025832;28;20104;-36
2022/07/07 08:23:55;;;;;;;4.90;1.33;;;18.30;99.90;;;;;;5015889;28;20046;-34
2022/07/07 08:26:21;;;;;;;4.07;1.27;;;18.30;99.90;;;;;;5026010;28;20033;-35
2022/07/07 08:28:46;;;;;;;3.25;0.98;;;18.40;99.90;;;;;;5016185;28;20025;-35
2022/07/07 08:31:12;;;;;;;3.80;0.75;;;18.50;99.90;;;;;;5022318;28;20034;-35
2022/07/07 08:33:37;;;;;;;4.30;1.30;;;18.70;99.90;;;;;;5020605;28;20437;-34
2022/07/07 08:36:03;;;;;;;5.35;1.50;;;18.70;99.90;;;;;;5020960;28;20128;-35
2022/07/07 08:38:29;;;;;;;3.75;1.10;;;18.60;99.90;;;;;;5021383;28;20098;-36
2022/07/07 08:40:55;;;;;;;3.20;1.00;;;18.30;99.90;;;;;;5026491;28;20108;-36
2022/07/07 08:43:20;;;;;;;2.83;0.80;;;18.00;99.90;;;;;;5026558;28;20083;-34
2022/07/07 08:45:48;;;;;;;3.40;0.98;;;17.70;99.90;;;;;;5025933;28;20493;-35
2022/07/07 08:48:14;;;;;;;4.10;0.90;;;17.60;99.90;;;;;;5025963;28;20116;-35
2022/07/07 08:50:40;;;;;;;2.33;0.80;;;17.60;99.90;;;;;;5026069;28;20108;-35
2022/07/07 08:53:07;;;;;;;2.83;0.80;;;17.50;99.90;;;;;;5024482;28;20581;-35
2022/07/07 08:55:35;;;;;;;3.30;0.82;;;17.50;99.90;;;;;;5025520;28;20025;-34
2022/07/07 08:58:01;;;;;;;3.35;0.90;;;17.50;99.90;;;;;;5025668;28;20040;-34
2022/07/07 09:00:27;;;;;;;3.75;1.70;;;17.60;99.90;;;;;;5025280;28;20531;-35
2022/07/07 09:02:57;;;;;;;4.35;0.90;;;17.70;99.90;;;;;;5026349;28;20089;-34
2022/07/07 09:05:22;;;;;;;1.48;0.60;;;17.90;99.90;;;;;;5025331;28;20111;-34
2022/07/07 09:07:50;;;;;;;2.63;0.63;;;18.00;99.90;;;;;;5026599;28;20041;-35
2022/07/07 09:10:33;;;;;;;3.80;0.85;;;18.10;99.90;;;;;;5026191;28;20029;-35
2022/07/07 09:13:00;;;;;;;2.60;0.50;;;18.20;99.90;;;;;;5025465;28;20039;-34
2022/07/07 09:15:26;;;;;;;1.63;0.60;;;18.20;99.90;;;;;;5025268;28;20196;-35
2022/07/07 09:17:52;;;;;;;2.05;0.50;;;18.10;99.90;;;;;;5026442;28;20024;-34
2022/07/07 09:20:17;;;;;;;2.58;0.57;;;18.20;99.90;;;;;;5024977;28;20017;-35
2022/07/07 09:22:54;;;;;;;1.58;0.43;;;18.10;99.90;;;;;;5026225;28;20041;-35
2022/07/07 09:25:22;;;;;;;1.13;0.40;;;18.10;99.90;;;;;;5026095;28;20123;-35
2022/07/07 09:28:04;;;;;;;2.03;0.50;;;18.20;99.90;;;;;;5024964;28;20032;-35
2022/07/07 09:30:45;;;;;;;1.10;0.55;;;18.40;99.90;;;;;;5025799;28;20099;-36
2022/07/07 09:33:15;;;;;;;1.77;0.47;;;18.50;99.90;;;;;;5025456;28;20033;-35
2022/07/07 09:38:30;;;;;;;1.52;0.40;;;18.80;99.90;;;;;;5025639;28;20058;-35
2022/07/07 09:41:00;;;;;;;0.82;0.38;;;19.00;99.90;;;;;;5024608;28;20057;-34
2022/07/07 09:43:27;;;;;;;1.23;0.35;;;19.10;99.90;;;;;;5025788;28;20120;-35
2022/07/07 09:46:19;;;;;;;0.82;0.25;;;19.20;99.90;;;;;;5025673;28;20034;-37
2022/07/07 09:48:51;;;;;;;1.07;0.37;;;19.20;99.90;;;;;;5025197;28;20120;-35
2022/07/07 09:51:28;;;;;;;1.92;0.40;;;19.00;99.90;;;;;;5025371;28;21003;-35
2022/07/07 09:53:59;;;;;;;3.25;0.63;;;18.90;99.90;;;;;;5026251;28;20037;-34
2022/07/07 09:56:39;;;;;;;1.05;0.40;;;18.70;99.90;;;;;;5024232;28;20041;-36
2022/07/07 09:59:08;;;;;;;2.13;0.60;;;18.50;99.90;;;;;;5025434;28;20063;-36
2022/07/07 10:01:35;;;;;;;2.25;0.60;;;18.40;99.90;;;;;;5024245;28;20124;-35
2022/07/07 10:04:04;;;;;;;2.15;0.68;;;18.40;99.90;;;;;;5025622;28;20040;-34
2022/07/07 10:06:32;;;;;;;1.80;0.57;;;18.40;99.90;;;;;;5024493;28;20519;-35
2022/07/07 10:09:03;;;;;;;1.40;0.60;;;18.50;99.90;;;;;;5025289;28;20021;-36
2022/07/07 10:11:38;;;;;;;1.80;0.45;;;18.70;99.90;;;;;;5025281;28;20076;-34
2022/07/07 10:14:16;;;;;;;1.45;0.70;;;18.80;99.90;;;;;;5025666;28;20277;-35
2022/07/07 10:16:44;;;;;;;5.80;0.90;;;18.90;99.90;;;;;;5024805;28;20029;-35
2022/07/07 10:19:12;;;;;;;3.15;0.70;;;19.00;99.90;;;;;;5025554;28;20029;-34
2022/07/07 10:21:41;;;;;;;3.38;0.70;;;19.20;99.90;;;;;;5025347;28;20017;-37
2022/07/07 10:24:07;;;;;;;3.08;0.85;;;19.40;99.90;;;;;;5013925;28;20038;-36
2022/07/07 10:26:38;;;;;;;3.05;0.68;;;19.40;99.90;;;;;;5024782;28;20356;-36
2022/07/07 10:29:04;;;;;;;3.38;0.80;;;19.40;99.90;;;;;;5025436;28;20064;-36
2022/07/07 10:31:30;;;;;;;1.48;0.98;;;19.30;99.90;;;;;;5024831;28;20022;-35
2022/07/07 10:34:00;;;;;;;2.13;0.70;;;19.20;99.90;;;;;;5025544;28;20424;-35
2022/07/07 10:36:26;;;;;;;2.30;0.68;;;19.10;99.90;;;;;;5024191;28;20042;-36
2022/07/07 10:38:58;;;;;;;3.35;1.10;;;19.00;99.90;;;;;;5025693;28;20357;-35
2022/07/07 10:41:25;;;;;;;2.47;0.90;;;18.90;99.90;;;;;;5024530;28;20511;-37
2022/07/07 10:44:06;;;;;;;1.23;0.65;;;18.80;99.90;;;;;;5026109;28;20370;-35
2022/07/07 10:46:34;;;;;;;3.70;0.80;;;18.80;99.90;;;;;;5029175;28;20048;-35
2022/07/07 10:49:09;;;;;;;1.83;0.90;;;18.90;99.90;;;;;;5028892;28;20477;-33
2022/07/07 10:51:54;;;;;;;1.85;0.50;;;19.00;99.90;;;;;;5027797;28;20396;-35
2022/07/07 10:54:37;;;;;;;1.70;0.77;;;19.30;99.90;;;;;;5028010;28;20116;-36
2022/07/07 10:57:02;;;;;;;2.33;0.90;;;19.40;99.90;;;;;;5029013;28;20029;-33
2022/07/07 10:59:28;;;;;;;1.42;0.80;;;19.50;99.90;;;;;;5027151;28;20119;-36
2022/07/07 11:02:03;;;;;;;2.33;0.80;;;19.60;99.90;;;;;;5028744;28;20068;-35
2022/07/07 11:05:02;;;;;;;1.60;0.70;;;19.80;99.90;;;;;;5027060;28;20175;-35
2022/07/07 11:07:28;;;;;;;3.00;0.60;;;19.90;99.90;;;;;;4995362;28;20041;-36
2022/07/07 11:10:12;;;;;;;3.42;0.95;;;20.00;99.90;;;;;;5028095;28;20025;-35
2022/07/07 11:12:46;;;;;;;2.60;0.90;;;20.00;99.90;;;;;;5027834;28;20021;-35
2022/07/07 11:15:14;;;;;;;1.80;0.88;;;19.80;99.90;;;;;;5021055;28;20054;-35
2022/07/07 11:17:42;;;;;;;4.75;1.58;;;19.70;99.90;;;;;;5008455;28;20026;-35
2022/07/07 11:20:08;;;;;;;2.08;0.85;;;19.50;99.90;;;;;;5020052;28;20101;-34
2022/07/07 11:22:44;;;;;;;2.72;0.80;;;19.40;99.90;;;;;;5007947;28;20042;-35
2022/07/07 11:25:12;;;;;;;1.63;0.70;;;19.20;99.90;;;;;;5020745;28;20025;-35
2022/07/07 11:27:38;;;;;;;1.33;0.80;;;19.10;99.90;;;;;;5007505;28;20029;-35
2022/07/07 11:30:04;;;;;;;2.17;1.00;;;19.20;99.90;;;;;;5018647;28;20025;-35
2022/07/07 11:32:38;;;;;;;1.45;0.80;;;19.40;99.90;;;;;;5010293;28;20122;-36
2022/07/07 11:35:06;;;;;;;0.98;0.60;;;19.60;99.90;;;;;;5017485;28;20152;-36
2022/07/07 11:37:31;;;;;;;2.33;0.90;;;19.70;99.90;;;;;;5010377;28;20026;-35
2022/07/07 11:39:58;;;;;;;1.88;0.88;;;19.70;99.90;;;;;;5014391;28;20434;-35
2022/07/07 11:42:24;;;;;;;2.42;1.00;;;19.60;99.90;;;;;;5013171;28;20176;-35
2022/07/07 11:44:50;;;;;;;2.25;1.00;;;19.40;99.90;;;;;;5012590;28;20029;-35
2022/07/07 11:47:15;;;;;;;2.88;1.00;;;19.10;99.90;;;;;;5015772;28;20029;-34
2022/07/07 11:49:41;;;;;;;1.33;0.82;;;18.90;99.90;;;;;;5009727;28;20030;-34
2022/07/07 11:52:13;;;;;;;2.53;1.00;;;18.90;99.90;;;;;;5018394;28;20022;-34
2022/07/07 11:54:48;;;;;;;2.28;0.90;;;19.00;99.90;;;;;;5008244;28;20053;-34
2022/07/07 11:57:34;;;;;;;3.65;1.20;;;19.10;99.90;;;;;;5016717;28;20140;-35
2022/07/07 12:00:19;;;;;;;2.90;1.38;;;19.10;99.90;;;;;;5027423;28;20489;-34
2022/07/07 12:02:48;;;;;;;1.85;0.95;;;19.20;99.90;;;;;;5026466;28;20049;-34
2022/07/07 12:05:18;;;;;;;2.00;0.73;;;19.10;99.90;;;;;;5027579;28;20038;-35
2022/07/07 12:08:02;;;;;;;2.03;0.77;;;19.20;99.90;;;;;;5026790;28;20461;-35
2022/07/07 12:10:31;;;;;;;1.63;0.90;;;19.30;99.90;;;;;;5027285;28;20116;-35
2022/07/07 12:13:02;;;;;;;2.35;0.80;;;19.50;99.90;;;;;;5027456;28;20041;-35
2022/07/07 12:15:31;;;;;;;1.20;0.90;;;19.60;99.90;;;;;;5026451;28;20029;-33
2022/07/07 12:17:58;;;;;;;3.78;1.17;;;19.60;99.90;;;;;;5007572;28;20061;-34
2022/07/07 12:20:24;;;;;;;1.50;0.90;;;19.50;99.90;;;;;;5010690;28;20077;-34
2022/07/07 12:22:59;;;;;;;3.45;1.20;;;19.30;99.90;;;;;;5026539;28;20053;-35
2022/07/07 12:25:28;;;;;;;4.68;1.58;;;19.10;99.90;;;;;;5026503;28;20096;-36
2022/07/07 12:28:02;;;;;;;6.35;1.50;;;19.00;99.90;;;;;;5026953;28;20920;-36
2022/07/07 12:30:31;;;;;;;5.72;1.55;;;18.90;99.90;;;;;;5025533;28;20163;-35
2022/07/07 12:32:58;;;;;;;5.63;1.65;;;18.90;99.90;;;;;;5027336;28;20022;-35
2022/07/07 12:35:32;;;;;;;6.70;1.75;;;18.90;99.90;;;;;;5026982;28;20025;-35
2022/07/07 12:38:00;;;;;;;8.77;1.95;;;19.00;99.90;;;;;;5018450;28;20032;-36
2022/07/07 12:40:27;;;;;;;8.77;2.10;;;19.10;99.90;;;;;;5006677;28;20054;-35
2022/07/07 12:42:53;;;;;;;7.20;1.92;;;19.20;99.90;;;;;;5019423;28;20040;-35
2022/07/07 12:45:19;;;;;;;7.47;1.80;;;19.30;99.90;;;;;;5006933;28;20037;-35
2022/07/07 12:47:50;;;;;;;6.85;1.98;;;19.30;99.90;;;;;;5018442;28;20018;-35
2022/07/07 12:50:16;;;;;;;4.95;1.77;;;19.40;99.90;;;;;;5006694;28;20033;-35
2022/07/07 12:53:02;;;;;;;7.40;1.70;;;19.40;99.90;;;;;;5016307;28;20033;-36
2022/07/07 12:55:35;;;;;;;8.23;2.05;;;19.50;99.90;;;;;;5006608;28;20025;-34